sensor_id;sensor_type;location;lat;lon;timestamp;temperature;humidity
81212;DHT22;70686;52.494;13.420;2023-06-22T00:02:05;22.90;60.00
81212;DHT22;70686;52.494;13.420;2023-06-22T00:04:31;23.00;59.80
81212;DHT22;70686;52.494;13.420;2023-06-22T00:06:56;22.90;59.80
81212;DHT22;70686;52.494;13.420;2023-06-22T00:09:22;23.00;59.60
81212;DHT22;70686;52.494;13.420;2023-06-22T00:11:47;23.00;59.20
81212;DHT22;70686;52.494;13.420;2023-06-22T00:14:13;22.90;59.70
81212;DHT22;70686;52.494;13.420;2023-06-22T00:16:38;22.90;59.60
81212;DHT22;70686;52.494;13.420;2023-06-22T00:19:04;22.90;59.80
81212;DHT22;70686;52.494;13.420;2023-06-22T00:21:30;22.80;59.80
81212;DHT22;70686;52.494;13.420;2023-06-22T00:23:56;23.00;59.40
81212;DHT22;70686;52.494;13.420;2023-06-22T00:26:22;22.90;59.60
81212;DHT22;70686;52.494;13.420;2023-06-22T00:28:48;23.00;59.80
81212;DHT22;70686;52.494;13.420;2023-06-22T00:31:13;23.30;58.40
81212;DHT22;70686;52.494;13.420;2023-06-22T00:33:39;23.50;57.50
81212;DHT22;70686;52.494;13.420;2023-06-22T00:36:04;23.50;57.50
81212;DHT22;70686;52.494;13.420;2023-06-22T00:38:30;23.10;59.10
81212;DHT22;70686;52.494;13.420;2023-06-22T00:40:55;22.80;60.20
81212;DHT22;70686;52.494;13.420;2023-06-22T00:43:21;22.60;60.60
81212;DHT22;70686;52.494;13.420;2023-06-22T00:45:46;22.60;60.70
81212;DHT22;70686;52.494;13.420;2023-06-22T00:48:12;22.60;61.10
81212;DHT22;70686;52.494;13.420;2023-06-22T00:50:39;22.60;61.00
81212;DHT22;70686;52.494;13.420;2023-06-22T00:53:05;22.60;61.00
81212;DHT22;70686;52.494;13.420;2023-06-22T00:55:43;22.50;61.50
81212;DHT22;70686;52.494;13.420;2023-06-22T00:58:10;22.50;61.60
81212;DHT22;70686;52.494;13.420;2023-06-22T01:00:36;22.50;61.40
81212;DHT22;70686;52.494;13.420;2023-06-22T01:03:03;22.40;61.70
81212;DHT22;70686;52.494;13.420;2023-06-22T01:05:28;22.30;62.20
81212;DHT22;70686;52.494;13.420;2023-06-22T01:08:16;22.20;62.50
81212;DHT22;70686;52.494;13.420;2023-06-22T01:10:44;22.30;62.50
81212;DHT22;70686;52.494;13.420;2023-06-22T01:13:16;22.30;62.70
81212;DHT22;70686;52.494;13.420;2023-06-22T01:16:01;22.30;63.20
81212;DHT22;70686;52.494;13.420;2023-06-22T01:18:28;22.30;62.70
81212;DHT22;70686;52.494;13.420;2023-06-22T01:20:54;22.30;62.70
81212;DHT22;70686;52.494;13.420;2023-06-22T01:23:24;22.30;62.60
81212;DHT22;70686;52.494;13.420;2023-06-22T01:28:54;22.10;63.40
81212;DHT22;70686;52.494;13.420;2023-06-22T01:31:22;22.10;63.80
81212;DHT22;70686;52.494;13.420;2023-06-22T01:33:50;22.10;63.80
81212;DHT22;70686;52.494;13.420;2023-06-22T01:36:16;22.10;63.80
81212;DHT22;70686;52.494;13.420;2023-06-22T01:38:42;22.00;64.30
81212;DHT22;70686;52.494;13.420;2023-06-22T01:41:08;22.00;64.70
81212;DHT22;70686;52.494;13.420;2023-06-22T01:43:34;21.90;65.00
81212;DHT22;70686;52.494;13.420;2023-06-22T01:46:01;21.90;64.90
81212;DHT22;70686;52.494;13.420;2023-06-22T01:48:26;21.90;65.10
81212;DHT22;70686;52.494;13.420;2023-06-22T01:50:52;21.90;65.30
81212;DHT22;70686;52.494;13.420;2023-06-22T01:53:22;21.90;65.30
81212;DHT22;70686;52.494;13.420;2023-06-22T01:55:48;21.90;65.20
81212;DHT22;70686;52.494;13.420;2023-06-22T01:58:13;21.90;65.60
81212;DHT22;70686;52.494;13.420;2023-06-22T02:00:40;21.90;65.80
81212;DHT22;70686;52.494;13.420;2023-06-22T02:03:10;21.90;65.80
81212;DHT22;70686;52.494;13.420;2023-06-22T02:05:43;21.90;65.60
81212;DHT22;70686;52.494;13.420;2023-06-22T02:08:11;21.90;65.60
81212;DHT22;70686;52.494;13.420;2023-06-22T02:10:38;21.90;65.90
81212;DHT22;70686;52.494;13.420;2023-06-22T02:13:06;21.90;66.00
81212;DHT22;70686;52.494;13.420;2023-06-22T02:15:33;21.90;66.10
81212;DHT22;70686;52.494;13.420;2023-06-22T02:17:59;21.90;66.10
81212;DHT22;70686;52.494;13.420;2023-06-22T02:20:25;21.90;66.30
81212;DHT22;70686;52.494;13.420;2023-06-22T02:22:50;21.90;66.40
81212;DHT22;70686;52.494;13.420;2023-06-22T02:25:16;21.90;66.40
81212;DHT22;70686;52.494;13.420;2023-06-22T02:27:41;21.90;66.40
81212;DHT22;70686;52.494;13.420;2023-06-22T02:30:10;21.90;66.40
81212;DHT22;70686;52.494;13.420;2023-06-22T02:32:35;21.90;66.50
81212;DHT22;70686;52.494;13.420;2023-06-22T02:35:01;21.90;66.60
81212;DHT22;70686;52.494;13.420;2023-06-22T02:37:30;21.90;66.60
81212;DHT22;70686;52.494;13.420;2023-06-22T02:39:56;21.90;66.90
81212;DHT22;70686;52.494;13.420;2023-06-22T02:42:21;22.00;66.70
81212;DHT22;70686;52.494;13.420;2023-06-22T02:44:47;22.00;66.70
81212;DHT22;70686;52.494;13.420;2023-06-22T02:47:12;22.00;66.90
81212;DHT22;70686;52.494;13.420;2023-06-22T02:49:38;22.00;66.90
81212;DHT22;70686;52.494;13.420;2023-06-22T02:52:03;22.00;67.00
81212;DHT22;70686;52.494;13.420;2023-06-22T02:54:29;22.10;66.90
81212;DHT22;70686;52.494;13.420;2023-06-22T02:56:54;22.10;66.90
81212;DHT22;70686;52.494;13.420;2023-06-22T02:59:20;22.20;67.80
81212;DHT22;70686;52.494;13.420;2023-06-22T03:01:51;22.20;66.30
81212;DHT22;70686;52.494;13.420;2023-06-22T03:04:17;22.10;66.80
81212;DHT22;70686;52.494;13.420;2023-06-22T03:06:43;22.10;66.90
81212;DHT22;70686;52.494;13.420;2023-06-22T03:09:09;22.10;66.50
81212;DHT22;70686;52.494;13.420;2023-06-22T03:11:34;22.20;66.50
81212;DHT22;70686;52.494;13.420;2023-06-22T03:14:00;22.20;66.60
81212;DHT22;70686;52.494;13.420;2023-06-22T03:16:26;22.10;66.50
81212;DHT22;70686;52.494;13.420;2023-06-22T03:18:51;22.20;66.20
81212;DHT22;70686;52.494;13.420;2023-06-22T03:21:19;22.20;65.90
81212;DHT22;70686;52.494;13.420;2023-06-22T03:23:44;22.10;65.50
81212;DHT22;70686;52.494;13.420;2023-06-22T03:26:10;22.30;64.70
81212;DHT22;70686;52.494;13.420;2023-06-22T03:28:36;22.20;64.70
81212;DHT22;70686;52.494;13.420;2023-06-22T03:31:02;22.10;64.80
81212;DHT22;70686;52.494;13.420;2023-06-22T03:33:28;22.20;64.30
81212;DHT22;70686;52.494;13.420;2023-06-22T03:35:54;22.10;64.00
81212;DHT22;70686;52.494;13.420;2023-06-22T03:38:19;22.20;63.50
81212;DHT22;70686;52.494;13.420;2023-06-22T03:40:45;22.20;63.10
81212;DHT22;70686;52.494;13.420;2023-06-22T03:43:10;22.30;62.60
81212;DHT22;70686;52.494;13.420;2023-06-22T03:45:36;22.20;62.60
81212;DHT22;70686;52.494;13.420;2023-06-22T03:48:01;22.30;62.70
81212;DHT22;70686;52.494;13.420;2023-06-22T03:50:27;22.30;62.70
81212;DHT22;70686;52.494;13.420;2023-06-22T03:52:53;22.30;63.10
81212;DHT22;70686;52.494;13.420;2023-06-22T03:55:21;22.30;63.30
81212;DHT22;70686;52.494;13.420;2023-06-22T03:57:46;22.20;64.00
81212;DHT22;70686;52.494;13.420;2023-06-22T04:00:12;22.20;63.70
81212;DHT22;70686;52.494;13.420;2023-06-22T04:02:38;22.20;63.40
81212;DHT22;70686;52.494;13.420;2023-06-22T04:05:04;22.20;63.40
81212;DHT22;70686;52.494;13.420;2023-06-22T04:07:29;22.20;63.80
81212;DHT22;70686;52.494;13.420;2023-06-22T04:09:55;22.20;63.40
81212;DHT22;70686;52.494;13.420;2023-06-22T04:12:20;22.30;63.40
81212;DHT22;70686;52.494;13.420;2023-06-22T04:14:46;22.30;62.90
81212;DHT22;70686;52.494;13.420;2023-06-22T04:17:11;22.40;61.60
81212;DHT22;70686;52.494;13.420;2023-06-22T04:19:39;22.40;61.00
81212;DHT22;70686;52.494;13.420;2023-06-22T04:22:05;22.30;60.70
81212;DHT22;70686;52.494;13.420;2023-06-22T04:24:32;22.30;60.60
81212;DHT22;70686;52.494;13.420;2023-06-22T04:26:58;22.40;60.50
81212;DHT22;70686;52.494;13.420;2023-06-22T04:29:28;22.50;60.40
81212;DHT22;70686;52.494;13.420;2023-06-22T04:31:56;22.50;60.30
81212;DHT22;70686;52.494;13.420;2023-06-22T04:34:23;22.50;60.60
81212;DHT22;70686;52.494;13.420;2023-06-22T04:36:51;22.40;61.00
81212;DHT22;70686;52.494;13.420;2023-06-22T04:39:17;22.40;61.40
81212;DHT22;70686;52.494;13.420;2023-06-22T04:41:44;22.50;60.70
81212;DHT22;70686;52.494;13.420;2023-06-22T04:44:13;22.60;60.80
81212;DHT22;70686;52.494;13.420;2023-06-22T04:46:39;22.70;60.80
81212;DHT22;70686;52.494;13.420;2023-06-22T04:49:05;22.70;60.50
81212;DHT22;70686;52.494;13.420;2023-06-22T04:51:41;22.80;60.30
81212;DHT22;70686;52.494;13.420;2023-06-22T04:54:07;23.00;59.90
81212;DHT22;70686;52.494;13.420;2023-06-22T04:56:33;23.10;59.20
81212;DHT22;70686;52.494;13.420;2023-06-22T04:58:59;23.30;58.30
81212;DHT22;70686;52.494;13.420;2023-06-22T05:01:24;23.20;58.00
81212;DHT22;70686;52.494;13.420;2023-06-22T05:03:50;23.30;57.90
81212;DHT22;70686;52.494;13.420;2023-06-22T05:06:16;23.40;56.90
81212;DHT22;70686;52.494;13.420;2023-06-22T05:08:43;23.70;56.10
81212;DHT22;70686;52.494;13.420;2023-06-22T05:11:08;23.80;55.70
81212;DHT22;70686;52.494;13.420;2023-06-22T05:13:34;23.70;55.90
81212;DHT22;70686;52.494;13.420;2023-06-22T05:15:59;23.90;55.90
81212;DHT22;70686;52.494;13.420;2023-06-22T05:18:31;23.90;55.00
81212;DHT22;70686;52.494;13.420;2023-06-22T05:20:57;23.90;55.40
81212;DHT22;70686;52.494;13.420;2023-06-22T05:23:23;24.20;55.00
81212;DHT22;70686;52.494;13.420;2023-06-22T05:25:49;24.20;55.00
81212;DHT22;70686;52.494;13.420;2023-06-22T05:28:15;24.10;55.00
81212;DHT22;70686;52.494;13.420;2023-06-22T05:30:41;24.20;54.70
81212;DHT22;70686;52.494;13.420;2023-06-22T05:33:07;24.10;55.60
81212;DHT22;70686;52.494;13.420;2023-06-22T05:35:32;24.30;54.80
81212;DHT22;70686;52.494;13.420;2023-06-22T05:37:58;24.40;54.10
81212;DHT22;70686;52.494;13.420;2023-06-22T05:40:24;24.50;54.20
81212;DHT22;70686;52.494;13.420;2023-06-22T05:42:50;24.30;54.10
81212;DHT22;70686;52.494;13.420;2023-06-22T05:45:15;24.30;54.40
81212;DHT22;70686;52.494;13.420;2023-06-22T05:47:41;24.20;54.30
81212;DHT22;70686;52.494;13.420;2023-06-22T05:50:06;24.10;54.90
81212;DHT22;70686;52.494;13.420;2023-06-22T05:52:34;24.00;55.10
81212;DHT22;70686;52.494;13.420;2023-06-22T05:55:00;24.10;55.10
81212;DHT22;70686;52.494;13.420;2023-06-22T05:57:25;24.20;55.20
81212;DHT22;70686;52.494;13.420;2023-06-22T05:59:51;24.20;55.00
81212;DHT22;70686;52.494;13.420;2023-06-22T06:02:17;24.40;54.50
81212;DHT22;70686;52.494;13.420;2023-06-22T06:04:42;24.50;54.20
81212;DHT22;70686;52.494;13.420;2023-06-22T06:07:08;24.60;53.60
81212;DHT22;70686;52.494;13.420;2023-06-22T06:09:33;24.70;53.60
81212;DHT22;70686;52.494;13.420;2023-06-22T06:11:58;24.70;53.80
81212;DHT22;70686;52.494;13.420;2023-06-22T06:14:24;24.70;53.50
81212;DHT22;70686;52.494;13.420;2023-06-22T06:16:50;24.80;53.50
81212;DHT22;70686;52.494;13.420;2023-06-22T06:19:15;24.80;53.30
81212;DHT22;70686;52.494;13.420;2023-06-22T06:21:41;24.70;53.40
81212;DHT22;70686;52.494;13.420;2023-06-22T06:24:06;24.60;53.30
81212;DHT22;70686;52.494;13.420;2023-06-22T06:26:32;24.70;52.60
81212;DHT22;70686;52.494;13.420;2023-06-22T06:28:59;24.70;52.70
81212;DHT22;70686;52.494;13.420;2023-06-22T06:31:25;24.90;51.90
81212;DHT22;70686;52.494;13.420;2023-06-22T06:33:52;25.10;51.80
81212;DHT22;70686;52.494;13.420;2023-06-22T06:36:19;25.00;51.20
81212;DHT22;70686;52.494;13.420;2023-06-22T06:38:44;24.90;51.90
81212;DHT22;70686;52.494;13.420;2023-06-22T06:41:15;25.00;51.90
81212;DHT22;70686;52.494;13.420;2023-06-22T06:43:40;25.20;51.20
81212;DHT22;70686;52.494;13.420;2023-06-22T06:46:08;25.30;51.30
81212;DHT22;70686;52.494;13.420;2023-06-22T06:48:35;25.40;51.00
81212;DHT22;70686;52.494;13.420;2023-06-22T06:51:01;25.50;50.80
81212;DHT22;70686;52.494;13.420;2023-06-22T06:53:26;25.20;49.80
81212;DHT22;70686;52.494;13.420;2023-06-22T06:55:52;25.10;50.30
81212;DHT22;70686;52.494;13.420;2023-06-22T06:58:17;25.10;50.50
81212;DHT22;70686;52.494;13.420;2023-06-22T07:00:43;25.30;50.00
81212;DHT22;70686;52.494;13.420;2023-06-22T07:03:09;25.40;49.10
81212;DHT22;70686;52.494;13.420;2023-06-22T07:05:34;25.50;48.90
81212;DHT22;70686;52.494;13.420;2023-06-22T07:08:00;25.70;48.20
81212;DHT22;70686;52.494;13.420;2023-06-22T07:10:26;25.90;46.80
81212;DHT22;70686;52.494;13.420;2023-06-22T07:12:51;26.10;46.20
81212;DHT22;70686;52.494;13.420;2023-06-22T07:15:17;26.10;46.00
81212;DHT22;70686;52.494;13.420;2023-06-22T07:17:42;26.10;46.00
81212;DHT22;70686;52.494;13.420;2023-06-22T07:20:08;26.30;46.20
81212;DHT22;70686;52.494;13.420;2023-06-22T07:22:36;26.60;44.90
81212;DHT22;70686;52.494;13.420;2023-06-22T07:25:01;26.80;44.40
81212;DHT22;70686;52.494;13.420;2023-06-22T07:27:30;26.70;44.50
81212;DHT22;70686;52.494;13.420;2023-06-22T07:30:01;26.60;44.40
81212;DHT22;70686;52.494;13.420;2023-06-22T07:32:26;26.80;45.00
81212;DHT22;70686;52.494;13.420;2023-06-22T07:34:53;26.90;44.50
81212;DHT22;70686;52.494;13.420;2023-06-22T07:37:19;27.00;43.40
81212;DHT22;70686;52.494;13.420;2023-06-22T07:39:44;27.00;43.20
81212;DHT22;70686;52.494;13.420;2023-06-22T07:42:10;27.10;42.10
81212;DHT22;70686;52.494;13.420;2023-06-22T07:44:35;26.90;42.10
81212;DHT22;70686;52.494;13.420;2023-06-22T07:47:01;27.00;42.20
81212;DHT22;70686;52.494;13.420;2023-06-22T07:49:27;27.10;42.40
81212;DHT22;70686;52.494;13.420;2023-06-22T07:51:53;27.10;41.20
81212;DHT22;70686;52.494;13.420;2023-06-22T07:54:18;27.20;40.50
81212;DHT22;70686;52.494;13.420;2023-06-22T07:56:44;27.40;40.40
81212;DHT22;70686;52.494;13.420;2023-06-22T07:59:11;27.20;40.70
81212;DHT22;70686;52.494;13.420;2023-06-22T08:01:36;27.40;39.50
81212;DHT22;70686;52.494;13.420;2023-06-22T08:04:02;27.40;39.00
81212;DHT22;70686;52.494;13.420;2023-06-22T08:06:29;27.20;39.50
81212;DHT22;70686;52.494;13.420;2023-06-22T08:08:55;27.20;38.80
81212;DHT22;70686;52.494;13.420;2023-06-22T08:11:24;27.20;38.50
81212;DHT22;70686;52.494;13.420;2023-06-22T08:13:51;27.20;37.30
81212;DHT22;70686;52.494;13.420;2023-06-22T08:16:16;27.30;37.70
81212;DHT22;70686;52.494;13.420;2023-06-22T08:18:42;27.30;37.30
81212;DHT22;70686;52.494;13.420;2023-06-22T08:21:07;27.30;37.80
81212;DHT22;70686;52.494;13.420;2023-06-22T08:23:33;27.40;38.10
81212;DHT22;70686;52.494;13.420;2023-06-22T08:25:58;27.30;38.70
81212;DHT22;70686;52.494;13.420;2023-06-22T08:28:24;27.40;39.40
81212;DHT22;70686;52.494;13.420;2023-06-22T08:30:49;27.50;39.30
81212;DHT22;70686;52.494;13.420;2023-06-22T08:33:15;27.50;39.60
81212;DHT22;70686;52.494;13.420;2023-06-22T08:35:40;27.60;39.60
81212;DHT22;70686;52.494;13.420;2023-06-22T08:38:06;27.80;39.60
81212;DHT22;70686;52.494;13.420;2023-06-22T08:40:31;27.80;39.80
81212;DHT22;70686;52.494;13.420;2023-06-22T08:42:57;27.80;39.10
81212;DHT22;70686;52.494;13.420;2023-06-22T08:45:22;27.80;40.20
81212;DHT22;70686;52.494;13.420;2023-06-22T08:47:48;27.90;40.00
81212;DHT22;70686;52.494;13.420;2023-06-22T08:50:13;28.00;39.90
81212;DHT22;70686;52.494;13.420;2023-06-22T08:52:39;28.20;39.40
81212;DHT22;70686;52.494;13.420;2023-06-22T08:55:07;28.20;39.50
81212;DHT22;70686;52.494;13.420;2023-06-22T08:57:32;28.20;39.20
81212;DHT22;70686;52.494;13.420;2023-06-22T08:59:58;28.20;39.10
81212;DHT22;70686;52.494;13.420;2023-06-22T09:02:26;28.30;38.50
81212;DHT22;70686;52.494;13.420;2023-06-22T09:04:56;28.40;37.90
81212;DHT22;70686;52.494;13.420;2023-06-22T09:07:23;28.50;37.90
81212;DHT22;70686;52.494;13.420;2023-06-22T09:09:50;28.80;36.90
81212;DHT22;70686;52.494;13.420;2023-06-22T09:12:16;29.00;35.80
81212;DHT22;70686;52.494;13.420;2023-06-22T09:14:41;29.20;35.00
81212;DHT22;70686;52.494;13.420;2023-06-22T09:17:07;29.30;34.80
81212;DHT22;70686;52.494;13.420;2023-06-22T09:19:32;29.40;34.10
81212;DHT22;70686;52.494;13.420;2023-06-22T09:21:58;29.40;34.70
81212;DHT22;70686;52.494;13.420;2023-06-22T09:24:24;29.30;34.30
81212;DHT22;70686;52.494;13.420;2023-06-22T09:26:49;29.20;34.70
81212;DHT22;70686;52.494;13.420;2023-06-22T09:29:15;29.10;35.20
81212;DHT22;70686;52.494;13.420;2023-06-22T09:31:41;29.20;34.50
81212;DHT22;70686;52.494;13.420;2023-06-22T09:34:06;28.90;35.30
81212;DHT22;70686;52.494;13.420;2023-06-22T09:36:32;29.00;35.30
81212;DHT22;70686;52.494;13.420;2023-06-22T09:38:57;29.10;35.60
81212;DHT22;70686;52.494;13.420;2023-06-22T09:41:24;29.00;35.20
81212;DHT22;70686;52.494;13.420;2023-06-22T09:43:50;29.00;35.10
81212;DHT22;70686;52.494;13.420;2023-06-22T09:46:15;29.00;35.60
81212;DHT22;70686;52.494;13.420;2023-06-22T09:48:41;29.00;36.30
81212;DHT22;70686;52.494;13.420;2023-06-22T09:51:06;29.00;36.30
81212;DHT22;70686;52.494;13.420;2023-06-22T09:53:32;28.80;37.00
81212;DHT22;70686;52.494;13.420;2023-06-22T09:55:57;28.80;37.00
81212;DHT22;70686;52.494;13.420;2023-06-22T09:58:23;28.90;37.00
81212;DHT22;70686;52.494;13.420;2023-06-22T10:00:48;29.10;37.50
81212;DHT22;70686;52.494;13.420;2023-06-22T10:03:14;29.00;36.50
81212;DHT22;70686;52.494;13.420;2023-06-22T10:05:39;29.00;37.10
81212;DHT22;70686;52.494;13.420;2023-06-22T10:08:05;29.00;37.30
81212;DHT22;70686;52.494;13.420;2023-06-22T10:10:33;29.10;36.90
81212;DHT22;70686;52.494;13.420;2023-06-22T10:13:02;28.90;37.50
81212;DHT22;70686;52.494;13.420;2023-06-22T10:15:28;28.90;37.20
81212;DHT22;70686;52.494;13.420;2023-06-22T10:17:53;29.00;37.10
81212;DHT22;70686;52.494;13.420;2023-06-22T10:20:19;28.90;37.50
81212;DHT22;70686;52.494;13.420;2023-06-22T10:22:45;29.00;37.50
81212;DHT22;70686;52.494;13.420;2023-06-22T10:25:12;29.00;37.60
81212;DHT22;70686;52.494;13.420;2023-06-22T10:27:38;29.20;37.60
81212;DHT22;70686;52.494;13.420;2023-06-22T10:30:07;29.30;37.40
81212;DHT22;70686;52.494;13.420;2023-06-22T10:32:33;29.40;36.90
81212;DHT22;70686;52.494;13.420;2023-06-22T10:34:58;29.50;37.00
81212;DHT22;70686;52.494;13.420;2023-06-22T10:37:24;28.80;37.80
81212;DHT22;70686;52.494;13.420;2023-06-22T10:39:49;28.90;38.00
81212;DHT22;70686;52.494;13.420;2023-06-22T10:42:15;28.90;38.00
81212;DHT22;70686;52.494;13.420;2023-06-22T10:44:40;29.00;37.20
81212;DHT22;70686;52.494;13.420;2023-06-22T10:47:08;29.00;36.80
81212;DHT22;70686;52.494;13.420;2023-06-22T10:49:33;29.20;36.70
81212;DHT22;70686;52.494;13.420;2023-06-22T10:51:59;29.20;36.70
81212;DHT22;70686;52.494;13.420;2023-06-22T10:54:25;29.40;36.30
81212;DHT22;70686;52.494;13.420;2023-06-22T10:56:50;29.70;36.00
81212;DHT22;70686;52.494;13.420;2023-06-22T10:59:16;29.80;35.40
81212;DHT22;70686;52.494;13.420;2023-06-22T11:01:41;30.00;35.00
81212;DHT22;70686;52.494;13.420;2023-06-22T11:04:07;30.00;34.20
81212;DHT22;70686;52.494;13.420;2023-06-22T11:06:32;29.90;34.40
81212;DHT22;70686;52.494;13.420;2023-06-22T11:08:59;29.90;34.90
81212;DHT22;70686;52.494;13.420;2023-06-22T11:11:25;29.90;34.30
81212;DHT22;70686;52.494;13.420;2023-06-22T11:13:50;29.90;34.00
81212;DHT22;70686;52.494;13.420;2023-06-22T11:16:16;29.70;33.50
81212;DHT22;70686;52.494;13.420;2023-06-22T11:18:41;29.70;34.00
81212;DHT22;70686;52.494;13.420;2023-06-22T11:21:07;29.50;34.70
81212;DHT22;70686;52.494;13.420;2023-06-22T11:23:32;29.60;34.50
81212;DHT22;70686;52.494;13.420;2023-06-22T11:25:58;29.60;34.20
81212;DHT22;70686;52.494;13.420;2023-06-22T11:28:23;29.70;34.50
81212;DHT22;70686;52.494;13.420;2023-06-22T11:30:49;29.90;34.10
81212;DHT22;70686;52.494;13.420;2023-06-22T11:33:14;30.00;33.60
81212;DHT22;70686;52.494;13.420;2023-06-22T11:35:40;30.10;33.70
81212;DHT22;70686;52.494;13.420;2023-06-22T11:38:05;30.20;33.60
81212;DHT22;70686;52.494;13.420;2023-06-22T11:40:31;30.00;33.60
81212;DHT22;70686;52.494;13.420;2023-06-22T11:42:57;29.80;33.70
81212;DHT22;70686;52.494;13.420;2023-06-22T11:45:22;29.90;33.60
81212;DHT22;70686;52.494;13.420;2023-06-22T11:47:48;29.90;33.80
81212;DHT22;70686;52.494;13.420;2023-06-22T11:50:13;29.90;33.50
81212;DHT22;70686;52.494;13.420;2023-06-22T11:52:39;30.00;33.60
81212;DHT22;70686;52.494;13.420;2023-06-22T11:55:05;30.10;34.00
81212;DHT22;70686;52.494;13.420;2023-06-22T11:57:35;30.00;33.20
81212;DHT22;70686;52.494;13.420;2023-06-22T12:00:01;30.20;33.20
81212;DHT22;70686;52.494;13.420;2023-06-22T12:02:31;30.30;32.60
81212;DHT22;70686;52.494;13.420;2023-06-22T12:04:57;30.60;32.90
81212;DHT22;70686;52.494;13.420;2023-06-22T12:07:23;30.70;32.10
81212;DHT22;70686;52.494;13.420;2023-06-22T12:09:49;30.70;32.10
81212;DHT22;70686;52.494;13.420;2023-06-22T12:12:15;30.50;32.30
81212;DHT22;70686;52.494;13.420;2023-06-22T12:14:40;30.30;32.70
81212;DHT22;70686;52.494;13.420;2023-06-22T12:17:05;30.60;32.60
81212;DHT22;70686;52.494;13.420;2023-06-22T12:19:31;30.60;32.40
81212;DHT22;70686;52.494;13.420;2023-06-22T12:21:57;30.80;32.20
81212;DHT22;70686;52.494;13.420;2023-06-22T12:24:29;30.70;32.20
81212;DHT22;70686;52.494;13.420;2023-06-22T12:26:55;30.70;31.90
81212;DHT22;70686;52.494;13.420;2023-06-22T12:29:20;30.60;32.10
81212;DHT22;70686;52.494;13.420;2023-06-22T12:31:46;30.50;32.10
81212;DHT22;70686;52.494;13.420;2023-06-22T12:34:11;30.50;32.20
81212;DHT22;70686;52.494;13.420;2023-06-22T12:36:37;30.60;32.60
81212;DHT22;70686;52.494;13.420;2023-06-22T12:39:03;30.60;32.70
81212;DHT22;70686;52.494;13.420;2023-06-22T12:41:28;30.60;32.10
81212;DHT22;70686;52.494;13.420;2023-06-22T12:43:54;30.70;32.00
81212;DHT22;70686;52.494;13.420;2023-06-22T12:46:19;30.80;32.10
81212;DHT22;70686;52.494;13.420;2023-06-22T12:48:44;31.00;32.00
81212;DHT22;70686;52.494;13.420;2023-06-22T12:51:10;31.10;31.50
81212;DHT22;70686;52.494;13.420;2023-06-22T12:53:35;31.20;31.70
81212;DHT22;70686;52.494;13.420;2023-06-22T12:56:01;31.40;31.00
81212;DHT22;70686;52.494;13.420;2023-06-22T12:58:27;31.50;31.00
81212;DHT22;70686;52.494;13.420;2023-06-22T13:00:52;31.60;31.00
81212;DHT22;70686;52.494;13.420;2023-06-22T13:03:18;31.50;30.70
81212;DHT22;70686;52.494;13.420;2023-06-22T13:05:43;31.30;31.20
81212;DHT22;70686;52.494;13.420;2023-06-22T13:08:09;31.50;31.60
81212;DHT22;70686;52.494;13.420;2023-06-22T13:10:36;31.60;31.50
81212;DHT22;70686;52.494;13.420;2023-06-22T13:13:01;31.70;30.90
81212;DHT22;70686;52.494;13.420;2023-06-22T13:15:27;31.60;31.20
81212;DHT22;70686;52.494;13.420;2023-06-22T13:17:54;31.90;31.10
81212;DHT22;70686;52.494;13.420;2023-06-22T13:20:19;32.50;30.50
81212;DHT22;70686;52.494;13.420;2023-06-22T13:22:45;32.90;29.80
81212;DHT22;70686;52.494;13.420;2023-06-22T13:25:10;33.10;29.50
81212;DHT22;70686;52.494;13.420;2023-06-22T13:27:38;32.90;29.70
81212;DHT22;70686;52.494;13.420;2023-06-22T13:30:04;32.80;29.70
81212;DHT22;70686;52.494;13.420;2023-06-22T13:32:29;32.90;29.70
81212;DHT22;70686;52.494;13.420;2023-06-22T13:34:55;33.30;29.40
81212;DHT22;70686;52.494;13.420;2023-06-22T13:37:20;33.60;29.10
81212;DHT22;70686;52.494;13.420;2023-06-22T13:39:46;33.40;29.30
81212;DHT22;70686;52.494;13.420;2023-06-22T13:42:11;33.90;28.90
81212;DHT22;70686;52.494;13.420;2023-06-22T13:44:37;33.70;29.00
81212;DHT22;70686;52.494;13.420;2023-06-22T13:47:02;33.60;28.50
81212;DHT22;70686;52.494;13.420;2023-06-22T13:49:30;33.40;28.90
81212;DHT22;70686;52.494;13.420;2023-06-22T13:51:55;33.50;28.80
81212;DHT22;70686;52.494;13.420;2023-06-22T13:54:21;33.60;28.70
81212;DHT22;70686;52.494;13.420;2023-06-22T13:56:46;34.00;28.90
81212;DHT22;70686;52.494;13.420;2023-06-22T13:59:12;34.00;28.40
81212;DHT22;70686;52.494;13.420;2023-06-22T14:01:37;34.00;28.60
81212;DHT22;70686;52.494;13.420;2023-06-22T14:04:05;34.50;28.30
81212;DHT22;70686;52.494;13.420;2023-06-22T14:06:31;34.60;28.00
81212;DHT22;70686;52.494;13.420;2023-06-22T14:08:56;35.10;27.40
81212;DHT22;70686;52.494;13.420;2023-06-22T14:11:22;34.90;27.60
81212;DHT22;70686;52.494;13.420;2023-06-22T14:13:47;35.00;27.60
81212;DHT22;70686;52.494;13.420;2023-06-22T14:16:13;34.80;28.30
81212;DHT22;70686;52.494;13.420;2023-06-22T14:18:38;35.10;27.60
81212;DHT22;70686;52.494;13.420;2023-06-22T14:21:04;35.30;27.50
81212;DHT22;70686;52.494;13.420;2023-06-22T14:23:29;35.50;27.10
81212;DHT22;70686;52.494;13.420;2023-06-22T14:25:55;35.70;27.00
81212;DHT22;70686;52.494;13.420;2023-06-22T14:28:20;35.80;26.60
81212;DHT22;70686;52.494;13.420;2023-06-22T14:30:46;35.60;26.60
81212;DHT22;70686;52.494;13.420;2023-06-22T14:33:12;35.60;26.70
81212;DHT22;70686;52.494;13.420;2023-06-22T14:35:37;35.50;27.10
81212;DHT22;70686;52.494;13.420;2023-06-22T14:38:03;36.30;26.60
81212;DHT22;70686;52.494;13.420;2023-06-22T14:40:28;36.70;26.10
81212;DHT22;70686;52.494;13.420;2023-06-22T14:42:54;36.40;25.90
81212;DHT22;70686;52.494;13.420;2023-06-22T14:45:22;36.10;26.00
81212;DHT22;70686;52.494;13.420;2023-06-22T14:47:47;36.20;26.30
81212;DHT22;70686;52.494;13.420;2023-06-22T14:50:13;36.90;25.70
81212;DHT22;70686;52.494;13.420;2023-06-22T14:52:38;37.00;25.70
81212;DHT22;70686;52.494;13.420;2023-06-22T14:55:04;37.40;25.20
81212;DHT22;70686;52.494;13.420;2023-06-22T14:57:30;37.10;25.10
81212;DHT22;70686;52.494;13.420;2023-06-22T14:59:55;36.80;25.30
81212;DHT22;70686;52.494;13.420;2023-06-22T15:02:21;36.60;25.50
81212;DHT22;70686;52.494;13.420;2023-06-22T15:04:46;36.90;25.30
81212;DHT22;70686;52.494;13.420;2023-06-22T15:07:12;36.80;25.20
81212;DHT22;70686;52.494;13.420;2023-06-22T15:09:37;36.60;25.50
81212;DHT22;70686;52.494;13.420;2023-06-22T15:12:06;36.40;25.70